sensor_id;sensor_type;location;lat;lon;timestamp;temperature;humidity
66190;DHT22;52992;52.084;5.412;2023-05-13T00:01:28;19.60;48.60
66190;DHT22;52992;52.084;5.412;2023-05-13T00:03:55;19.60;48.30
66190;DHT22;52992;52.084;5.412;2023-05-13T00:06:22;19.50;48.20
66190;DHT22;52992;52.084;5.412;2023-05-13T00:08:49;19.50;49.00
66190;DHT22;52992;52.084;5.412;2023-05-13T00:11:16;19.50;48.10
66190;DHT22;52992;52.084;5.412;2023-05-13T00:13:43;19.40;48.10
66190;DHT22;52992;52.084;5.412;2023-05-13T00:16:10;19.40;47.90
66190;DHT22;52992;52.084;5.412;2023-05-13T00:18:37;19.30;47.40
66190;DHT22;52992;52.084;5.412;2023-05-13T00:21:03;19.30;47.40
66190;DHT22;52992;52.084;5.412;2023-05-13T00:23:30;19.30;47.70
66190;DHT22;52992;52.084;5.412;2023-05-13T00:25:59;19.30;47.70
66190;DHT22;52992;52.084;5.412;2023-05-13T00:28:26;19.30;47.70
66190;DHT22;52992;52.084;5.412;2023-05-13T00:30:52;19.30;47.50
66190;DHT22;52992;52.084;5.412;2023-05-13T00:33:19;19.20;47.60
66190;DHT22;52992;52.084;5.412;2023-05-13T00:35:46;19.20;47.60
66190;DHT22;52992;52.084;5.412;2023-05-13T00:38:13;19.20;47.80
66190;DHT22;52992;52.084;5.412;2023-05-13T00:40:40;19.10;48.30
66190;DHT22;52992;52.084;5.412;2023-05-13T00:43:07;19.10;48.80
66190;DHT22;52992;52.084;5.412;2023-05-13T00:45:36;19.10;49.10
66190;DHT22;52992;52.084;5.412;2023-05-13T00:48:05;19.00;48.80
66190;DHT22;52992;52.084;5.412;2023-05-13T00:50:33;19.00;49.00
66190;DHT22;52992;52.084;5.412;2023-05-13T00:53:01;18.90;50.00
66190;DHT22;52992;52.084;5.412;2023-05-13T00:55:28;19.00;49.70
66190;DHT22;52992;52.084;5.412;2023-05-13T00:57:56;19.00;49.80
66190;DHT22;52992;52.084;5.412;2023-05-13T01:00:22;19.00;50.10
66190;DHT22;52992;52.084;5.412;2023-05-13T01:02:52;18.90;49.60
66190;DHT22;52992;52.084;5.412;2023-05-13T01:05:27;18.90;48.90
66190;DHT22;52992;52.084;5.412;2023-05-13T01:08:06;18.80;48.80
66190;DHT22;52992;52.084;5.412;2023-05-13T01:10:46;18.70;48.80
66190;DHT22;52992;52.084;5.412;2023-05-13T01:13:20;18.80;48.80
66190;DHT22;52992;52.084;5.412;2023-05-13T01:15:55;18.70;48.50
66190;DHT22;52992;52.084;5.412;2023-05-13T01:18:28;18.70;48.50
66190;DHT22;52992;52.084;5.412;2023-05-13T01:20:57;18.70;48.80
66190;DHT22;52992;52.084;5.412;2023-05-13T01:23:27;18.60;48.20
66190;DHT22;52992;52.084;5.412;2023-05-13T01:25:54;18.60;48.40
66190;DHT22;52992;52.084;5.412;2023-05-13T01:28:21;18.50;49.20
66190;DHT22;52992;52.084;5.412;2023-05-13T01:30:51;18.50;48.50
66190;DHT22;52992;52.084;5.412;2023-05-13T01:33:18;18.50;48.70
66190;DHT22;52992;52.084;5.412;2023-05-13T01:35:46;18.50;48.10
66190;DHT22;52992;52.084;5.412;2023-05-13T01:38:16;18.40;48.10
66190;DHT22;52992;52.084;5.412;2023-05-13T01:40:47;18.40;48.20
66190;DHT22;52992;52.084;5.412;2023-05-13T01:43:14;18.30;47.50
66190;DHT22;52992;52.084;5.412;2023-05-13T01:45:41;18.20;48.00
66190;DHT22;52992;52.084;5.412;2023-05-13T01:48:10;18.20;47.50
66190;DHT22;52992;52.084;5.412;2023-05-13T01:50:41;18.10;48.80
66190;DHT22;52992;52.084;5.412;2023-05-13T01:53:08;18.10;48.40
66190;DHT22;52992;52.084;5.412;2023-05-13T01:55:37;18.20;48.40
66190;DHT22;52992;52.084;5.412;2023-05-13T01:58:04;18.20;48.10
66190;DHT22;52992;52.084;5.412;2023-05-13T02:00:31;18.10;48.10
66190;DHT22;52992;52.084;5.412;2023-05-13T02:02:58;18.10;48.10
66190;DHT22;52992;52.084;5.412;2023-05-13T02:05:25;18.10;47.90
66190;DHT22;52992;52.084;5.412;2023-05-13T02:07:53;18.00;47.90
66190;DHT22;52992;52.084;5.412;2023-05-13T02:10:20;18.00;48.30
66190;DHT22;52992;52.084;5.412;2023-05-13T02:12:47;18.00;48.10
66190;DHT22;52992;52.084;5.412;2023-05-13T02:15:14;18.00;48.10
66190;DHT22;52992;52.084;5.412;2023-05-13T02:17:41;18.00;48.10
66190;DHT22;52992;52.084;5.412;2023-05-13T02:20:08;18.00;48.30
66190;DHT22;52992;52.084;5.412;2023-05-13T02:22:35;17.90;48.50
66190;DHT22;52992;52.084;5.412;2023-05-13T02:25:06;17.90;48.30
66190;DHT22;52992;52.084;5.412;2023-05-13T02:27:32;17.90;48.30
66190;DHT22;52992;52.084;5.412;2023-05-13T02:29:59;17.80;48.10
66190;DHT22;52992;52.084;5.412;2023-05-13T02:32:26;17.80;48.40
66190;DHT22;52992;52.084;5.412;2023-05-13T02:34:53;17.80;48.90
66190;DHT22;52992;52.084;5.412;2023-05-13T02:37:21;17.70;49.70
66190;DHT22;52992;52.084;5.412;2023-05-13T02:39:56;17.70;49.20
66190;DHT22;52992;52.084;5.412;2023-05-13T02:42:23;17.70;49.20
66190;DHT22;52992;52.084;5.412;2023-05-13T02:44:50;17.60;48.90
66190;DHT22;52992;52.084;5.412;2023-05-13T02:47:17;17.60;48.80
66190;DHT22;52992;52.084;5.412;2023-05-13T02:49:44;17.50;49.30
66190;DHT22;52992;52.084;5.412;2023-05-13T02:52:11;17.50;49.40
66190;DHT22;52992;52.084;5.412;2023-05-13T02:54:38;17.50;49.60
66190;DHT22;52992;52.084;5.412;2023-05-13T02:57:05;17.50;49.30
66190;DHT22;52992;52.084;5.412;2023-05-13T02:59:32;17.40;49.10
66190;DHT22;52992;52.084;5.412;2023-05-13T03:01:59;17.40;49.20
66190;DHT22;52992;52.084;5.412;2023-05-13T03:04:26;17.30;49.60
66190;DHT22;52992;52.084;5.412;2023-05-13T03:06:53;17.30;49.80
66190;DHT22;52992;52.084;5.412;2023-05-13T03:09:20;17.30;50.80
66190;DHT22;52992;52.084;5.412;2023-05-13T03:11:47;17.30;50.20
66190;DHT22;52992;52.084;5.412;2023-05-13T03:14:14;17.30;50.30
66190;DHT22;52992;52.084;5.412;2023-05-13T03:16:41;17.30;50.20
66190;DHT22;52992;52.084;5.412;2023-05-13T03:19:08;17.30;50.50
66190;DHT22;52992;52.084;5.412;2023-05-13T03:21:35;17.30;50.90
66190;DHT22;52992;52.084;5.412;2023-05-13T03:24:02;17.30;50.80
66190;DHT22;52992;52.084;5.412;2023-05-13T03:26:29;17.10;50.70
66190;DHT22;52992;52.084;5.412;2023-05-13T03:28:56;17.10;51.40
66190;DHT22;52992;52.084;5.412;2023-05-13T03:31:23;17.10;51.40
66190;DHT22;52992;52.084;5.412;2023-05-13T03:33:50;17.10;51.50
66190;DHT22;52992;52.084;5.412;2023-05-13T03:36:18;17.10;51.40
66190;DHT22;52992;52.084;5.412;2023-05-13T03:38:45;17.00;51.20
66190;DHT22;52992;52.084;5.412;2023-05-13T03:41:11;17.00;51.40
66190;DHT22;52992;52.084;5.412;2023-05-13T03:43:38;17.00;51.70
66190;DHT22;52992;52.084;5.412;2023-05-13T03:46:09;17.00;52.00
66190;DHT22;52992;52.084;5.412;2023-05-13T03:48:37;17.00;51.70
66190;DHT22;52992;52.084;5.412;2023-05-13T03:51:04;17.00;51.80
66190;DHT22;52992;52.084;5.412;2023-05-13T03:53:32;16.90;51.90
66190;DHT22;52992;52.084;5.412;2023-05-13T03:55:58;16.90;52.00
66190;DHT22;52992;52.084;5.412;2023-05-13T03:58:27;16.90;52.00
66190;DHT22;52992;52.084;5.412;2023-05-13T04:00:53;16.80;52.10
66190;DHT22;52992;52.084;5.412;2023-05-13T04:03:21;16.70;52.20
66190;DHT22;52992;52.084;5.412;2023-05-13T04:05:50;16.80;52.50
66190;DHT22;52992;52.084;5.412;2023-05-13T04:08:17;16.80;52.60
66190;DHT22;52992;52.084;5.412;2023-05-13T04:10:44;16.80;52.60
66190;DHT22;52992;52.084;5.412;2023-05-13T04:13:10;16.70;52.90
66190;DHT22;52992;52.084;5.412;2023-05-13T04:15:37;16.80;53.00
66190;DHT22;52992;52.084;5.412;2023-05-13T04:18:04;16.80;52.90
66190;DHT22;52992;52.084;5.412;2023-05-13T04:20:33;16.70;53.00
66190;DHT22;52992;52.084;5.412;2023-05-13T04:23:00;16.70;53.10
66190;DHT22;52992;52.084;5.412;2023-05-13T04:25:28;16.60;53.10
66190;DHT22;52992;52.084;5.412;2023-05-13T04:27:55;16.70;53.30
66190;DHT22;52992;52.084;5.412;2023-05-13T04:30:31;16.70;53.40
66190;DHT22;52992;52.084;5.412;2023-05-13T04:32:58;16.60;53.20
66190;DHT22;52992;52.084;5.412;2023-05-13T04:35:26;16.60;53.30
66190;DHT22;52992;52.084;5.412;2023-05-13T04:37:56;16.60;53.30
66190;DHT22;52992;52.084;5.412;2023-05-13T04:40:23;16.60;53.50
66190;DHT22;52992;52.084;5.412;2023-05-13T04:42:52;16.70;53.60
66190;DHT22;52992;52.084;5.412;2023-05-13T04:45:38;16.70;53.50
66190;DHT22;52992;52.084;5.412;2023-05-13T04:48:07;16.70;53.40
66190;DHT22;52992;52.084;5.412;2023-05-13T04:50:34;16.70;53.30
66190;DHT22;52992;52.084;5.412;2023-05-13T04:53:01;16.70;53.50
66190;DHT22;52992;52.084;5.412;2023-05-13T04:55:28;16.70;53.70
66190;DHT22;52992;52.084;5.412;2023-05-13T04:57:55;16.70;54.40
66190;DHT22;52992;52.084;5.412;2023-05-13T05:00:22;16.70;53.60
66190;DHT22;52992;52.084;5.412;2023-05-13T05:02:51;16.70;53.60
66190;DHT22;52992;52.084;5.412;2023-05-13T05:05:18;16.70;53.80
66190;DHT22;52992;52.084;5.412;2023-05-13T05:07:45;16.70;53.90
66190;DHT22;52992;52.084;5.412;2023-05-13T05:10:12;16.70;53.90
66190;DHT22;52992;52.084;5.412;2023-05-13T05:12:48;16.70;53.90
66190;DHT22;52992;52.084;5.412;2023-05-13T05:15:15;16.70;53.70
66190;DHT22;52992;52.084;5.412;2023-05-13T05:17:45;16.70;53.80
66190;DHT22;52992;52.084;5.412;2023-05-13T05:20:12;16.70;53.80
66190;DHT22;52992;52.084;5.412;2023-05-13T05:22:39;16.70;54.00
66190;DHT22;52992;52.084;5.412;2023-05-13T05:25:09;16.70;54.00
66190;DHT22;52992;52.084;5.412;2023-05-13T05:27:37;16.80;54.00
66190;DHT22;52992;52.084;5.412;2023-05-13T05:30:05;16.80;53.90
66190;DHT22;52992;52.084;5.412;2023-05-13T05:32:34;16.80;54.20
66190;DHT22;52992;52.084;5.412;2023-05-13T05:35:02;16.80;54.00
66190;DHT22;52992;52.084;5.412;2023-05-13T05:37:31;16.80;54.00
66190;DHT22;52992;52.084;5.412;2023-05-13T05:39:58;16.90;54.20
66190;DHT22;52992;52.084;5.412;2023-05-13T05:42:25;17.10;54.10
66190;DHT22;52992;52.084;5.412;2023-05-13T05:44:52;17.00;53.80
66190;DHT22;52992;52.084;5.412;2023-05-13T05:47:19;17.10;53.90
66190;DHT22;52992;52.084;5.412;2023-05-13T05:49:45;17.20;54.70
66190;DHT22;52992;52.084;5.412;2023-05-13T05:52:13;17.20;53.70
66190;DHT22;52992;52.084;5.412;2023-05-13T05:54:40;17.20;53.80
66190;DHT22;52992;52.084;5.412;2023-05-13T05:57:07;17.20;54.40
66190;DHT22;52992;52.084;5.412;2023-05-13T05:59:34;17.30;54.00
66190;DHT22;52992;52.084;5.412;2023-05-13T06:02:01;17.30;53.40
66190;DHT22;52992;52.084;5.412;2023-05-13T06:04:28;17.30;53.70
66190;DHT22;52992;52.084;5.412;2023-05-13T06:06:55;17.30;53.80
66190;DHT22;52992;52.084;5.412;2023-05-13T06:09:22;17.40;53.80
66190;DHT22;52992;52.084;5.412;2023-05-13T06:11:49;17.50;53.60
66190;DHT22;52992;52.084;5.412;2023-05-13T06:14:16;17.50;53.20
66190;DHT22;52992;52.084;5.412;2023-05-13T06:16:43;17.60;53.50
66190;DHT22;52992;52.084;5.412;2023-05-13T06:19:10;17.70;53.20
66190;DHT22;52992;52.084;5.412;2023-05-13T06:21:37;17.80;53.10
66190;DHT22;52992;52.084;5.412;2023-05-13T06:24:04;18.00;53.10
66190;DHT22;52992;52.084;5.412;2023-05-13T06:26:31;18.10;52.90
66190;DHT22;52992;52.084;5.412;2023-05-13T06:28:58;18.20;52.40
66190;DHT22;52992;52.084;5.412;2023-05-13T06:31:26;18.20;52.40
66190;DHT22;52992;52.084;5.412;2023-05-13T06:33:53;18.30;52.50
66190;DHT22;52992;52.084;5.412;2023-05-13T06:36:23;18.40;52.10
66190;DHT22;52992;52.084;5.412;2023-05-13T06:38:50;18.40;52.10
66190;DHT22;52992;52.084;5.412;2023-05-13T06:41:16;18.50;52.80
66190;DHT22;52992;52.084;5.412;2023-05-13T06:43:43;18.60;52.90
66190;DHT22;52992;52.084;5.412;2023-05-13T06:46:19;18.80;52.60
66190;DHT22;52992;52.084;5.412;2023-05-13T06:48:46;18.80;53.10
66190;DHT22;52992;52.084;5.412;2023-05-13T06:51:13;18.90;53.20
66190;DHT22;52992;52.084;5.412;2023-05-13T06:53:40;19.10;52.90
66190;DHT22;52992;52.084;5.412;2023-05-13T06:56:07;19.20;51.90
66190;DHT22;52992;52.084;5.412;2023-05-13T06:58:34;19.30;51.50
66190;DHT22;52992;52.084;5.412;2023-05-13T07:01:01;19.30;51.50
66190;DHT22;52992;52.084;5.412;2023-05-13T07:03:28;19.40;51.70
66190;DHT22;52992;52.084;5.412;2023-05-13T07:05:55;19.40;51.80
66190;DHT22;52992;52.084;5.412;2023-05-13T07:08:22;19.50;51.20
66190;DHT22;52992;52.084;5.412;2023-05-13T07:10:48;19.60;51.30
66190;DHT22;52992;52.084;5.412;2023-05-13T07:13:17;19.70;51.30
66190;DHT22;52992;52.084;5.412;2023-05-13T07:15:44;19.70;51.70
66190;DHT22;52992;52.084;5.412;2023-05-13T07:18:13;19.80;51.50
66190;DHT22;52992;52.084;5.412;2023-05-13T07:20:40;19.90;51.20
66190;DHT22;52992;52.084;5.412;2023-05-13T07:23:06;20.00;50.50
66190;DHT22;52992;52.084;5.412;2023-05-13T07:25:33;20.10;50.10
66190;DHT22;52992;52.084;5.412;2023-05-13T07:28:00;20.20;49.40
66190;DHT22;52992;52.084;5.412;2023-05-13T07:30:28;20.30;49.50
66190;DHT22;52992;52.084;5.412;2023-05-13T07:32:54;20.50;50.10
66190;DHT22;52992;52.084;5.412;2023-05-13T07:35:21;20.70;50.70
66190;DHT22;52992;52.084;5.412;2023-05-13T07:37:48;20.90;49.10
66190;DHT22;52992;52.084;5.412;2023-05-13T07:40:15;21.10;48.30
66190;DHT22;52992;52.084;5.412;2023-05-13T07:42:43;21.20;48.90
66190;DHT22;52992;52.084;5.412;2023-05-13T07:45:10;21.30;47.80
66190;DHT22;52992;52.084;5.412;2023-05-13T07:47:37;21.40;48.10
66190;DHT22;52992;52.084;5.412;2023-05-13T07:50:04;21.50;48.10
66190;DHT22;52992;52.084;5.412;2023-05-13T07:52:31;21.60;46.60
66190;DHT22;52992;52.084;5.412;2023-05-13T07:54:58;21.70;46.80
66190;DHT22;52992;52.084;5.412;2023-05-13T07:57:25;21.80;46.80
66190;DHT22;52992;52.084;5.412;2023-05-13T07:59:52;21.90;46.70
66190;DHT22;52992;52.084;5.412;2023-05-13T08:02:19;21.90;45.20
66190;DHT22;52992;52.084;5.412;2023-05-13T08:04:47;22.00;46.10
66190;DHT22;52992;52.084;5.412;2023-05-13T08:07:14;22.20;46.20
66190;DHT22;52992;52.084;5.412;2023-05-13T08:09:41;22.30;46.10
66190;DHT22;52992;52.084;5.412;2023-05-13T08:12:08;22.40;45.90
66190;DHT22;52992;52.084;5.412;2023-05-13T08:14:35;22.50;45.50
66190;DHT22;52992;52.084;5.412;2023-05-13T08:17:04;22.60;44.10
66190;DHT22;52992;52.084;5.412;2023-05-13T08:19:31;22.70;43.30
66190;DHT22;52992;52.084;5.412;2023-05-13T08:21:58;22.80;42.90
66190;DHT22;52992;52.084;5.412;2023-05-13T08:24:25;22.90;43.60
66190;DHT22;52992;52.084;5.412;2023-05-13T08:26:52;23.00;43.30
66190;DHT22;52992;52.084;5.412;2023-05-13T08:29:19;23.20;43.50
66190;DHT22;52992;52.084;5.412;2023-05-13T08:31:46;23.40;42.40
66190;DHT22;52992;52.084;5.412;2023-05-13T08:34:13;23.50;42.80
66190;DHT22;52992;52.084;5.412;2023-05-13T08:36:40;23.70;42.00
66190;DHT22;52992;52.084;5.412;2023-05-13T08:39:07;23.70;41.40
66190;DHT22;52992;52.084;5.412;2023-05-13T08:41:34;23.80;41.20
66190;DHT22;52992;52.084;5.412;2023-05-13T08:44:03;23.90;40.90
66190;DHT22;52992;52.084;5.412;2023-05-13T08:46:32;24.00;40.80
66190;DHT22;52992;52.084;5.412;2023-05-13T08:49:00;24.20;40.90
66190;DHT22;52992;52.084;5.412;2023-05-13T08:51:28;24.30;40.30
66190;DHT22;52992;52.084;5.412;2023-05-13T08:53:55;24.40;39.90
66190;DHT22;52992;52.084;5.412;2023-05-13T08:56:22;24.50;39.00
66190;DHT22;52992;52.084;5.412;2023-05-13T08:58:51;24.60;38.70
66190;DHT22;52992;52.084;5.412;2023-05-13T09:01:18;24.60;38.40
66190;DHT22;52992;52.084;5.412;2023-05-13T09:03:57;24.70;38.70
66190;DHT22;52992;52.084;5.412;2023-05-13T09:06:28;24.80;37.90
66190;DHT22;52992;52.084;5.412;2023-05-13T09:08:55;24.90;38.80
66190;DHT22;52992;52.084;5.412;2023-05-13T09:11:22;25.10;38.60
66190;DHT22;52992;52.084;5.412;2023-05-13T09:14:00;25.30;38.20
66190;DHT22;52992;52.084;5.412;2023-05-13T09:16:27;25.40;37.50
66190;DHT22;52992;52.084;5.412;2023-05-13T09:19:01;25.60;37.30
66190;DHT22;52992;52.084;5.412;2023-05-13T09:21:30;25.80;36.80
66190;DHT22;52992;52.084;5.412;2023-05-13T09:24:05;26.00;36.90
66190;DHT22;52992;52.084;5.412;2023-05-13T09:26:36;26.10;36.10
66190;DHT22;52992;52.084;5.412;2023-05-13T09:29:36;26.20;36.30
66190;DHT22;52992;52.084;5.412;2023-05-13T09:32:05;26.40;35.40
66190;DHT22;52992;52.084;5.412;2023-05-13T09:34:35;26.60;35.30
66190;DHT22;52992;52.084;5.412;2023-05-13T09:37:06;26.90;34.60
66190;DHT22;52992;52.084;5.412;2023-05-13T09:39:42;27.00;34.00
66190;DHT22;52992;52.084;5.412;2023-05-13T09:42:17;27.00;34.20
66190;DHT22;52992;52.084;5.412;2023-05-13T09:44:45;27.00;33.60
66190;DHT22;52992;52.084;5.412;2023-05-13T09:47:12;27.10;34.00
66190;DHT22;52992;52.084;5.412;2023-05-13T09:49:41;27.30;33.50
66190;DHT22;52992;52.084;5.412;2023-05-13T09:52:08;27.30;31.60
66190;DHT22;52992;52.084;5.412;2023-05-13T09:54:37;27.40;32.50
66190;DHT22;52992;52.084;5.412;2023-05-13T09:57:05;27.50;32.60
66190;DHT22;52992;52.084;5.412;2023-05-13T09:59:33;27.50;31.50
66190;DHT22;52992;52.084;5.412;2023-05-13T10:02:03;27.50;32.00
66190;DHT22;52992;52.084;5.412;2023-05-13T10:04:31;27.60;32.10
66190;DHT22;52992;52.084;5.412;2023-05-13T10:07:01;27.90;33.20
66190;DHT22;52992;52.084;5.412;2023-05-13T10:09:35;28.20;32.80
66190;DHT22;52992;52.084;5.412;2023-05-13T10:12:06;28.40;32.10
66190;DHT22;52992;52.084;5.412;2023-05-13T10:14:37;28.60;31.90
66190;DHT22;52992;52.084;5.412;2023-05-13T10:17:04;28.80;32.50
66190;DHT22;52992;52.084;5.412;2023-05-13T10:19:32;29.10;32.80
66190;DHT22;52992;52.084;5.412;2023-05-13T10:22:00;29.30;31.20
66190;DHT22;52992;52.084;5.412;2023-05-13T10:24:28;29.40;30.20
66190;DHT22;52992;52.084;5.412;2023-05-13T10:26:56;29.50;31.00
66190;DHT22;52992;52.084;5.412;2023-05-13T10:29:24;29.60;32.20
66190;DHT22;52992;52.084;5.412;2023-05-13T10:31:52;29.90;32.40
66190;DHT22;52992;52.084;5.412;2023-05-13T10:34:21;30.00;30.20
66190;DHT22;52992;52.084;5.412;2023-05-13T10:40:30;30.00;29.60
66190;DHT22;52992;52.084;5.412;2023-05-13T10:45:47;30.10;30.00
66190;DHT22;52992;52.084;5.412;2023-05-13T10:48:16;30.20;30.50
66190;DHT22;52992;52.084;5.412;2023-05-13T10:50:54;30.40;30.00
66190;DHT22;52992;52.084;5.412;2023-05-13T10:53:29;30.50;30.00
66190;DHT22;52992;52.084;5.412;2023-05-13T10:55:58;30.70;29.70
66190;DHT22;52992;52.084;5.412;2023-05-13T10:58:30;30.80;29.50
66190;DHT22;52992;52.084;5.412;2023-05-13T11:01:17;30.80;28.30
66190;DHT22;52992;52.084;5.412;2023-05-13T11:03:55;30.60;27.90
66190;DHT22;52992;52.084;5.412;2023-05-13T11:06:28;30.60;28.20
66190;DHT22;52992;52.084;5.412;2023-05-13T11:08:55;30.70;29.10
66190;DHT22;52992;52.084;5.412;2023-05-13T11:13:49;31.10;28.70
66190;DHT22;52992;52.084;5.412;2023-05-13T11:16:17;31.40;28.60
66190;DHT22;52992;52.084;5.412;2023-05-13T11:18:45;31.50;28.60
66190;DHT22;52992;52.084;5.412;2023-05-13T11:21:12;31.80;27.60
66190;DHT22;52992;52.084;5.412;2023-05-13T11:23:52;31.80;27.80
66190;DHT22;52992;52.084;5.412;2023-05-13T11:26:21;31.80;27.70
66190;DHT22;52992;52.084;5.412;2023-05-13T11:29:08;31.70;26.60
66190;DHT22;52992;52.084;5.412;2023-05-13T11:31:49;31.50;27.20
66190;DHT22;52992;52.084;5.412;2023-05-13T11:34:19;31.60;27.20
66190;DHT22;52992;52.084;5.412;2023-05-13T11:36:54;31.70;27.50
66190;DHT22;52992;52.084;5.412;2023-05-13T11:39:23;31.80;27.00
66190;DHT22;52992;52.084;5.412;2023-05-13T11:41:53;31.90;26.10
66190;DHT22;52992;52.084;5.412;2023-05-13T11:44:24;31.70;26.70
66190;DHT22;52992;52.084;5.412;2023-05-13T11:52:16;31.50;26.60
66190;DHT22;52992;52.084;5.412;2023-05-13T12:02:23;31.40;26.40
66190;DHT22;52992;52.084;5.412;2023-05-13T12:04:50;31.50;26.40
66190;DHT22;52992;52.084;5.412;2023-05-13T12:07:24;31.70;26.50
66190;DHT22;52992;52.084;5.412;2023-05-13T12:09:54;31.90;26.40
66190;DHT22;52992;52.084;5.412;2023-05-13T12:12:21;32.10;25.80
66190;DHT22;52992;52.084;5.412;2023-05-13T12:14:49;32.20;25.50
66190;DHT22;52992;52.084;5.412;2023-05-13T12:17:17;31.90;24.90
66190;DHT22;52992;52.084;5.412;2023-05-13T12:20:16;31.80;26.00
66190;DHT22;52992;52.084;5.412;2023-05-13T12:28:22;32.10;25.20
66190;DHT22;52992;52.084;5.412;2023-05-13T12:31:03;32.00;26.20
66190;DHT22;52992;52.084;5.412;2023-05-13T12:33:42;32.10;25.50
66190;DHT22;52992;52.084;5.412;2023-05-13T12:36:23;32.00;25.00
66190;DHT22;52992;52.084;5.412;2023-05-13T12:39:10;32.10;24.40
66190;DHT22;52992;52.084;5.412;2023-05-13T12:41:39;31.90;25.00
66190;DHT22;52992;52.084;5.412;2023-05-13T12:44:08;31.70;25.10
66190;DHT22;52992;52.084;5.412;2023-05-13T12:46:35;31.60;24.70
66190;DHT22;52992;52.084;5.412;2023-05-13T12:49:03;31.00;25.20
66190;DHT22;52992;52.084;5.412;2023-05-13T12:51:31;30.40;25.70
66190;DHT22;52992;52.084;5.412;2023-05-13T12:54:01;30.10;24.40
66190;DHT22;52992;52.084;5.412;2023-05-13T12:56:27;29.60;25.30
66190;DHT22;52992;52.084;5.412;2023-05-13T12:58:54;28.80;25.50
66190;DHT22;52992;52.084;5.412;2023-05-13T13:01:22;28.20;25.90
66190;DHT22;52992;52.084;5.412;2023-05-13T13:03:49;27.70;26.10
66190;DHT22;52992;52.084;5.412;2023-05-13T13:06:16;27.30;26.70
66190;DHT22;52992;52.084;5.412;2023-05-13T13:08:43;27.00;26.80
66190;DHT22;52992;52.084;5.412;2023-05-13T13:11:10;26.90;26.40
66190;DHT22;52992;52.084;5.412;2023-05-13T13:13:44;27.30;25.70
66190;DHT22;52992;52.084;5.412;2023-05-13T13:16:11;27.80;25.30
66190;DHT22;52992;52.084;5.412;2023-05-13T13:18:41;28.20;25.10
66190;DHT22;52992;52.084;5.412;2023-05-13T13:21:09;28.40;25.50
66190;DHT22;52992;52.084;5.412;2023-05-13T13:23:36;28.60;25.00
66190;DHT22;52992;52.084;5.412;2023-05-13T13:26:03;28.60;25.90
66190;DHT22;52992;52.084;5.412;2023-05-13T13:28:30;28.50;25.10
66190;DHT22;52992;52.084;5.412;2023-05-13T13:30:57;28.50;26.40
66190;DHT22;52992;52.084;5.412;2023-05-13T13:33:25;28.70;25.80
66190;DHT22;52992;52.084;5.412;2023-05-13T13:35:52;28.60;25.20
66190;DHT22;52992;52.084;5.412;2023-05-13T13:38:19;28.60;25.80
66190;DHT22;52992;52.084;5.412;2023-05-13T13:40:45;28.50;25.30
66190;DHT22;52992;52.084;5.412;2023-05-13T13:43:12;28.30;25.30
66190;DHT22;52992;52.084;5.412;2023-05-13T13:45:39;28.10;25.60
66190;DHT22;52992;52.084;5.412;2023-05-13T13:48:06;27.90;25.00
66190;DHT22;52992;52.084;5.412;2023-05-13T13:50:33;27.80;25.20
66190;DHT22;52992;52.084;5.412;2023-05-13T13:53:00;27.60;25.70
66190;DHT22;52992;52.084;5.412;2023-05-13T13:55:26;27.60;26.40
66190;DHT22;52992;52.084;5.412;2023-05-13T13:57:53;27.70;25.80
66190;DHT22;52992;52.084;5.412;2023-05-13T14:00:20;27.80;25.80
66190;DHT22;52992;52.084;5.412;2023-05-13T14:02:47;27.70;25.30
66190;DHT22;52992;52.084;5.412;2023-05-13T14:05:15;27.60;25.00
66190;DHT22;52992;52.084;5.412;2023-05-13T14:07:41;27.40;25.90
66190;DHT22;52992;52.084;5.412;2023-05-13T14:10:09;27.30;25.50
66190;DHT22;52992;52.084;5.412;2023-05-13T14:12:36;27.30;25.90
66190;DHT22;52992;52.084;5.412;2023-05-13T14:15:04;27.30;26.60
66190;DHT22;52992;52.084;5.412;2023-05-13T14:17:32;27.30;26.70
66190;DHT22;52992;52.084;5.412;2023-05-13T14:19:59;27.20;26.00
66190;DHT22;52992;52.084;5.412;2023-05-13T14:22:26;27.10;25.40
66190;DHT22;52992;52.084;5.412;2023-05-13T14:24:52;27.00;26.00
66190;DHT22;52992;52.084;5.412;2023-05-13T14:27:20;27.00;25.50
66190;DHT22;52992;52.084;5.412;2023-05-13T14:29:47;26.90;25.60
66190;DHT22;52992;52.084;5.412;2023-05-13T14:32:14;26.80;26.00
66190;DHT22;52992;52.084;5.412;2023-05-13T14:34:42;26.80;26.10
66190;DHT22;52992;52.084;5.412;2023-05-13T14:37:09;26.80;26.50
66190;DHT22;52992;52.084;5.412;2023-05-13T14:39:36;26.80;27.40
66190;DHT22;52992;52.084;5.412;2023-05-13T14:42:03;26.80;26.70
66190;DHT22;52992;52.084;5.412;2023-05-13T14:44:30;26.70;26.00
66190;DHT22;52992;52.084;5.412;2023-05-13T14:46:57;26.60;25.00
66190;DHT22;52992;52.084;5.412;2023-05-13T14:49:24;26.60;25.20
66190;DHT22;52992;52.084;5.412;2023-05-13T14:51:51;26.50;25.00
66190;DHT22;52992;52.084;5.412;2023-05-13T14:54:19;26.60;25.70
66190;DHT22;52992;52.084;5.412;2023-05-13T14:56:47;26.60;25.70
66190;DHT22;52992;52.084;5.412;2023-05-13T14:59:14;26.60;25.90
66190;DHT22;52992;52.084;5.412;2023-05-13T15:01:41;26.60;26.20
66190;DHT22;52992;52.084;5.412;2023-05-13T15:04:08;26.60;26.70
66190;DHT22;52992;52.084;5.412;2023-05-13T15:06:36;26.60;26.00
66190;DHT22;52992;52.084;5.412;2023-05-13T15:09:03;26.50;25.80
66190;DHT22;52992;52.084;5.412;2023-05-13T15:11:31;26.50;25.40
66190;DHT22;52992;52.084;5.412;2023-05-13T15:13:58;26.50;26.10
66190;DHT22;52992;52.084;5.412;2023-05-13T15:16:25;26.50;26.20
66190;DHT22;52992;52.084;5.412;2023-05-13T15:18:52;26.50;25.40
66190;DHT22;52992;52.084;5.412;2023-05-13T15:21:19;26.50;25.10
66190;DHT22;52992;52.084;5.412;2023-05-13T15:23:46;26.50;24.90
66190;DHT22;52992;52.084;5.412;2023-05-13T15:26:13;26.40;24.70
66190;DHT22;52992;52.084;5.412;2023-05-13T15:28:40;26.50;25.40
66190;DHT22;52992;52.084;5.412;2023-05-13T15:31:07;26.50;24.80
66190;DHT22;52992;52.084;5.412;2023-05-13T15:33:34;26.50;24.30
66190;DHT22;52992;52.084;5.412;2023-05-13T15:36:01;26.50;24.70
66190;DHT22;52992;52.084;5.412;2023-05-13T15:38:28;26.40;25.00
66190;DHT22;52992;52.084;5.412;2023-05-13T15:40:54;26.40;25.30
66190;DHT22;52992;52.084;5.412;2023-05-13T15:43:21;26.30;25.30
66190;DHT22;52992;52.084;5.412;2023-05-13T15:45:48;26.30;25.20
66190;DHT22;52992;52.084;5.412;2023-05-13T15:48:16;26.30;25.30
66190;DHT22;52992;52.084;5.412;2023-05-13T15:50:43;26.40;25.20
66190;DHT22;52992;52.084;5.412;2023-05-13T15:53:10;26.30;25.10
66190;DHT22;52992;52.084;5.412;2023-05-13T15:55:37;26.40;25.80
66190;DHT22;52992;52.084;5.412;2023-05-13T15:58:05;26.40;26.30
66190;DHT22;52992;52.084;5.412;2023-05-13T16:00:32;26.40;25.40
66190;DHT22;52992;52.084;5.412;2023-05-13T16:03:00;26.40;25.70
66190;DHT22;52992;52.084;5.412;2023-05-13T16:05:27;26.40;25.30